createdAt,value
2022-07-29T00:00:53.638Z,14.90
2022-07-29T00:03:27.804Z,14.90
2022-07-29T00:06:01.838Z,14.86
2022-07-29T00:08:35.892Z,14.88
2022-07-29T00:11:10.142Z,14.90
2022-07-29T00:13:49.022Z,14.90
2022-07-29T00:16:25.090Z,14.90
2022-07-29T00:19:02.255Z,14.90
2022-07-29T00:21:38.185Z,14.88
2022-07-29T00:24:13.078Z,14.90
2022-07-29T00:26:47.408Z,14.90
2022-07-29T00:29:37.117Z,15.00
2022-07-29T00:32:12.172Z,15.00
2022-07-29T00:35:04.256Z,14.92
2022-07-29T00:37:39.656Z,14.98
2022-07-29T00:40:15.761Z,15.00
2022-07-29T00:42:51.858Z,15.00
2022-07-29T00:45:26.151Z,15.00
2022-07-29T00:48:02.714Z,14.90
2022-07-29T00:50:38.161Z,14.90
2022-07-29T00:53:15.672Z,14.80
2022-07-29T00:55:49.985Z,14.80
2022-07-29T00:58:27.185Z,14.80
2022-07-29T01:01:03.125Z,14.80
2022-07-29T01:03:37.828Z,14.74
2022-07-29T01:06:12.288Z,14.70
2022-07-29T01:08:47.000Z,14.70
2022-07-29T01:11:22.395Z,14.70
2022-07-29T01:13:58.047Z,14.70
2022-07-29T01:16:42.226Z,14.70
2022-07-29T01:19:47.527Z,14.70
2022-07-29T01:22:39.454Z,14.70
2022-07-29T01:25:56.073Z,14.70
2022-07-29T01:29:07.496Z,14.60
2022-07-29T01:32:00.555Z,14.50
2022-07-29T01:34:47.974Z,14.50
2022-07-29T01:37:29.281Z,14.50
2022-07-29T01:40:07.330Z,14.50
2022-07-29T01:42:46.882Z,14.46
2022-07-29T01:45:26.958Z,14.48
2022-07-29T01:48:08.962Z,14.50
2022-07-29T01:50:50.546Z,14.50
2022-07-29T01:53:38.008Z,14.60
2022-07-29T01:56:16.254Z,14.58
2022-07-29T01:58:54.409Z,14.50
2022-07-29T02:01:32.290Z,14.50
2022-07-29T02:04:10.855Z,14.50
2022-07-29T02:06:49.973Z,14.40
2022-07-29T02:09:26.985Z,14.40
2022-07-29T02:12:04.474Z,14.40
2022-07-29T02:14:42.967Z,14.40
2022-07-29T02:17:21.774Z,14.30
2022-07-29T02:19:58.150Z,14.30
2022-07-29T02:22:40.266Z,14.30
2022-07-29T02:25:16.698Z,14.30
2022-07-29T02:27:53.786Z,14.30
2022-07-29T02:30:29.718Z,14.22
2022-07-29T02:33:05.640Z,14.20
2022-07-29T02:35:40.724Z,14.20
2022-07-29T02:38:37.470Z,14.20
2022-07-29T02:41:17.577Z,14.10
2022-07-29T02:43:58.817Z,14.10
2022-07-29T02:46:36.910Z,14.10
2022-07-29T02:49:18.236Z,14.10
2022-07-29T02:51:59.314Z,14.12
2022-07-29T02:54:44.647Z,14.20
2022-07-29T02:57:31.002Z,14.14
2022-07-29T03:00:10.608Z,14.12
2022-07-29T03:02:52.854Z,14.10
2022-07-29T03:05:28.758Z,14.10
2022-07-29T03:08:08.756Z,14.10
2022-07-29T03:10:46.643Z,14.06
2022-07-29T03:13:21.057Z,14.00
2022-07-29T03:15:56.566Z,14.00
2022-07-29T03:18:31.512Z,14.00
2022-07-29T03:21:06.734Z,14.00
2022-07-29T03:23:45.673Z,14.00
2022-07-29T03:26:19.512Z,14.00
2022-07-29T03:28:53.346Z,14.00
2022-07-29T03:31:27.798Z,13.94
2022-07-29T03:34:02.022Z,13.94
2022-07-29T03:36:35.972Z,13.90
2022-07-29T03:39:11.527Z,13.92
2022-07-29T03:41:47.189Z,13.98
2022-07-29T03:44:23.069Z,14.00
2022-07-29T03:47:03.030Z,14.00
2022-07-29T03:49:40.889Z,14.00
2022-07-29T03:52:14.917Z,14.00
2022-07-29T03:54:50.352Z,14.00
2022-07-29T03:57:29.441Z,14.00
2022-07-29T04:00:04.657Z,14.00
2022-07-29T04:02:40.555Z,14.00
2022-07-29T04:05:19.593Z,14.10
2022-07-29T04:07:53.990Z,14.14
2022-07-29T04:10:31.801Z,14.20
2022-07-29T04:13:06.220Z,14.20
2022-07-29T04:15:40.281Z,14.30
2022-07-29T04:18:14.309Z,14.30
2022-07-29T04:20:48.367Z,14.40
2022-07-29T04:23:22.595Z,14.40
2022-07-29T04:25:56.894Z,14.50
2022-07-29T04:28:31.171Z,14.60
2022-07-29T04:31:05.245Z,14.74
2022-07-29T04:33:39.463Z,14.90
2022-07-29T04:36:28.759Z,15.00
2022-07-29T04:39:03.766Z,15.10
2022-07-29T04:41:38.123Z,15.20
2022-07-29T04:44:12.336Z,15.40
2022-07-29T04:46:46.381Z,15.54
2022-07-29T04:49:20.314Z,15.72
2022-07-29T04:51:54.327Z,15.96
2022-07-29T04:54:28.235Z,16.20
2022-07-29T04:57:02.467Z,16.40
2022-07-29T04:59:36.406Z,16.60
2022-07-29T05:02:10.305Z,16.80
2022-07-29T05:04:44.195Z,17.00
2022-07-29T05:07:18.108Z,17.20
2022-07-29T05:09:51.987Z,17.40
2022-07-29T05:12:25.753Z,17.60
2022-07-29T05:14:59.745Z,17.80
2022-07-29T05:17:34.795Z,17.96
2022-07-29T05:20:11.944Z,18.10
2022-07-29T05:22:45.890Z,18.20
2022-07-29T05:25:20.594Z,18.40
2022-07-29T05:27:54.848Z,18.50
2022-07-29T05:30:28.972Z,18.60
2022-07-29T05:33:03.364Z,18.70
2022-07-29T05:35:38.268Z,18.70
2022-07-29T05:38:12.138Z,18.80
2022-07-29T05:40:47.003Z,18.80
2022-07-29T05:43:22.072Z,18.90
2022-07-29T05:45:56.123Z,18.94
2022-07-29T05:48:30.632Z,19.00
2022-07-29T05:51:06.049Z,19.00
2022-07-29T05:53:40.011Z,19.10
2022-07-29T05:56:13.909Z,19.18
2022-07-29T05:58:47.952Z,19.20
2022-07-29T06:01:21.908Z,19.30
2022-07-29T06:03:56.312Z,19.50
2022-07-29T06:06:32.950Z,19.60
2022-07-29T06:09:12.331Z,19.72
2022-07-29T06:11:47.619Z,19.90
2022-07-29T06:14:23.436Z,20.00
2022-07-29T06:17:02.114Z,20.12
2022-07-29T06:19:37.914Z,20.30
2022-07-29T06:22:12.748Z,20.40
2022-07-29T06:24:49.608Z,20.60
2022-07-29T06:27:24.972Z,20.72
2022-07-29T06:30:00.169Z,20.90
2022-07-29T06:32:45.185Z,21.06
2022-07-29T06:35:38.974Z,21.28
2022-07-29T06:38:30.950Z,21.40
2022-07-29T06:41:07.152Z,21.60
2022-07-29T06:43:51.879Z,21.72
2022-07-29T06:46:28.713Z,21.94
2022-07-29T06:49:03.742Z,22.20
2022-07-29T06:51:40.847Z,22.40
2022-07-29T06:54:15.153Z,22.60
2022-07-29T06:56:51.860Z,22.80
2022-07-29T06:59:35.114Z,22.82
2022-07-29T07:02:12.737Z,22.90
2022-07-29T07:04:46.755Z,23.00
2022-07-29T07:07:24.346Z,23.10
2022-07-29T07:09:58.525Z,23.20
2022-07-29T07:12:52.452Z,23.40
2022-07-29T07:15:38.936Z,23.60
2022-07-29T07:18:15.911Z,23.70
2022-07-29T07:20:51.584Z,23.80
2022-07-29T07:23:28.004Z,23.90
2022-07-29T07:26:02.518Z,23.90
2022-07-29T07:28:39.100Z,24.00
2022-07-29T07:31:13.565Z,24.24
2022-07-29T07:33:48.836Z,24.50
2022-07-29T07:36:30.147Z,24.70
2022-07-29T07:39:06.395Z,24.90
2022-07-29T07:41:45.002Z,25.16
2022-07-29T07:44:20.459Z,25.30
2022-07-29T07:46:55.837Z,25.30
2022-07-29T07:49:31.872Z,25.36
2022-07-29T07:52:09.614Z,25.30
2022-07-29T07:54:44.136Z,25.20
2022-07-29T07:57:21.659Z,25.20
2022-07-29T07:59:57.950Z,25.30
2022-07-29T08:02:32.881Z,25.36
2022-07-29T08:05:12.687Z,25.40
2022-07-29T08:07:51.146Z,25.50
2022-07-29T08:10:45.029Z,25.50
2022-07-29T08:13:26.234Z,25.60
2022-07-29T08:16:03.117Z,25.78
2022-07-29T08:18:37.868Z,25.90
2022-07-29T08:21:15.036Z,26.20
2022-07-29T08:24:00.796Z,26.40
2022-07-29T08:26:37.472Z,26.70
2022-07-29T08:29:15.038Z,26.90
2022-07-29T08:31:53.312Z,27.10
2022-07-29T08:34:29.552Z,27.10
2022-07-29T08:37:07.237Z,27.02
2022-07-29T08:39:44.049Z,27.20
2022-07-29T08:42:19.491Z,27.50
2022-07-29T08:44:55.834Z,27.42
2022-07-29T08:47:32.069Z,27.68
2022-07-29T08:50:08.331Z,28.00
2022-07-29T08:52:44.402Z,28.46
2022-07-29T08:55:22.554Z,28.76
2022-07-29T08:57:58.946Z,29.10
2022-07-29T09:00:43.607Z,29.16
2022-07-29T09:03:23.057Z,29.10
2022-07-29T09:06:02.913Z,29.12
2022-07-29T09:08:42.509Z,29.20
2022-07-29T09:11:26.502Z,29.10
2022-07-29T09:14:02.378Z,28.92
2022-07-29T09:17:00.063Z,28.62
2022-07-29T09:19:39.267Z,28.52
2022-07-29T09:22:40.044Z,28.30
2022-07-29T09:25:18.216Z,28.10
2022-07-29T09:27:55.487Z,28.10
2022-07-29T09:30:36.219Z,28.20
2022-07-29T09:33:55.548Z,28.36
2022-07-29T09:36:45.782Z,28.60
2022-07-29T09:39:34.867Z,28.60
2022-07-29T09:42:11.074Z,28.54
2022-07-29T09:44:51.435Z,28.46
2022-07-29T09:47:42.274Z,28.40
2022-07-29T09:50:16.956Z,28.50
2022-07-29T09:52:55.060Z,28.70
2022-07-29T09:55:30.063Z,28.90
2022-07-29T09:58:21.798Z,29.00
2022-07-29T10:00:58.359Z,28.80
2022-07-29T10:03:33.766Z,29.02
2022-07-29T10:06:14.771Z,29.20
2022-07-29T10:08:50.662Z,29.10
2022-07-29T10:11:25.186Z,28.90
2022-07-29T10:14:22.095Z,29.00
2022-07-29T10:16:58.335Z,29.00
2022-07-29T10:19:35.235Z,29.00
2022-07-29T10:22:15.119Z,29.00
2022-07-29T10:24:49.700Z,29.20
2022-07-29T10:27:24.286Z,29.20
2022-07-29T10:29:59.441Z,29.20
2022-07-29T10:32:54.404Z,29.10
2022-07-29T10:35:57.409Z,29.10
2022-07-29T10:38:55.006Z,29.10
2022-07-29T10:42:01.563Z,29.20
2022-07-29T10:44:41.955Z,29.52
2022-07-29T10:47:27.213Z,29.70
2022-07-29T10:50:07.254Z,29.80
2022-07-29T10:53:01.022Z,29.90
2022-07-29T10:55:57.493Z,30.00
2022-07-29T10:58:35.703Z,30.42
2022-07-29T11:01:37.420Z,30.80
2022-07-29T11:04:13.335Z,30.80
2022-07-29T11:07:17.461Z,30.70
2022-07-29T11:10:31.372Z,30.70
2022-07-29T11:13:06.270Z,30.74
2022-07-29T11:15:59.417Z,30.82
2022-07-29T11:18:34.705Z,31.12
2022-07-29T11:21:54.132Z,31.30
2022-07-29T11:24:37.022Z,31.20
2022-07-29T11:27:21.178Z,31.20
2022-07-29T11:30:01.105Z,31.30
2022-07-29T11:32:48.747Z,31.62
2022-07-29T11:35:38.326Z,31.80
2022-07-29T11:38:37.620Z,31.98
2022-07-29T11:41:36.996Z,31.90
2022-07-29T11:44:12.085Z,32.00
2022-07-29T11:46:55.059Z,31.90
2022-07-29T11:49:32.115Z,31.80
2022-07-29T11:52:08.357Z,31.80
2022-07-29T11:54:57.286Z,31.80
2022-07-29T11:58:04.169Z,32.00
2022-07-29T12:00:50.560Z,32.16
2022-07-29T12:03:35.455Z,32.10
2022-07-29T12:06:18.493Z,32.20
2022-07-29T12:08:55.154Z,32.20
2022-07-29T12:11:30.091Z,32.14
2022-07-29T12:14:05.435Z,32.26
2022-07-29T12:16:41.931Z,32.20
2022-07-29T12:19:16.576Z,32.30
2022-07-29T12:21:56.433Z,32.50
2022-07-29T12:24:46.832Z,32.30
2022-07-29T12:27:29.333Z,32.30
2022-07-29T12:30:06.365Z,32.46
2022-07-29T12:32:44.954Z,32.78
2022-07-29T12:35:22.454Z,33.10
2022-07-29T12:37:57.053Z,33.38
2022-07-29T12:40:31.354Z,34.12
2022-07-29T12:43:20.353Z,34.74
2022-07-29T12:45:58.125Z,35.20
2022-07-29T12:48:45.003Z,34.66
2022-07-29T12:51:19.778Z,34.40
2022-07-29T12:54:11.638Z,34.30
2022-07-29T12:56:47.290Z,34.52
2022-07-29T12:59:24.313Z,34.80
2022-07-29T13:02:01.260Z,34.76
2022-07-29T13:04:43.758Z,34.98
2022-07-29T13:07:55.882Z,35.50
2022-07-29T13:10:30.462Z,35.60
2022-07-29T13:13:13.788Z,36.00
2022-07-29T13:16:07.550Z,36.14
2022-07-29T13:18:42.915Z,36.50
2022-07-29T13:21:19.404Z,36.78
2022-07-29T13:23:54.177Z,36.70
2022-07-29T13:26:30.411Z,36.80
2022-07-29T13:29:06.106Z,36.56
2022-07-29T13:31:41.258Z,35.68
2022-07-29T13:34:15.625Z,34.44
2022-07-29T13:36:55.622Z,33.82
2022-07-29T13:39:30.612Z,33.30
2022-07-29T13:42:10.459Z,33.00
2022-07-29T13:44:45.841Z,32.70
2022-07-29T13:47:32.628Z,32.50
2022-07-29T13:50:11.132Z,32.52
2022-07-29T13:52:49.413Z,32.28
2022-07-29T13:55:23.865Z,31.80
2022-07-29T13:57:58.989Z,31.42
2022-07-29T14:00:33.580Z,31.30
2022-07-29T14:03:09.133Z,31.40
2022-07-29T14:05:43.961Z,31.50
2022-07-29T14:08:19.842Z,31.60
2022-07-29T14:11:01.331Z,31.62
2022-07-29T14:13:36.165Z,31.50
2022-07-29T14:16:11.582Z,31.30
2022-07-29T14:18:46.668Z,30.90
2022-07-29T14:21:21.368Z,30.70
2022-07-29T14:23:56.100Z,30.60
2022-07-29T14:26:32.229Z,30.44
2022-07-29T14:29:08.425Z,30.48
2022-07-29T14:31:50.695Z,30.40
2022-07-29T14:34:26.418Z,30.30
2022-07-29T14:37:00.694Z,30.30
2022-07-29T14:39:43.230Z,30.50
2022-07-29T14:42:18.149Z,30.70
2022-07-29T14:44:53.894Z,30.90
2022-07-29T14:47:28.620Z,30.86
2022-07-29T14:50:06.414Z,30.90
2022-07-29T14:52:41.411Z,31.00
2022-07-29T14:55:19.979Z,31.00
2022-07-29T14:58:03.082Z,31.00
2022-07-29T15:00:47.687Z,31.08
2022-07-29T15:03:24.734Z,30.98
2022-07-29T15:06:00.195Z,30.70
2022-07-29T15:08:35.514Z,30.70
2022-07-29T15:11:09.953Z,30.60
2022-07-29T15:13:44.543Z,30.50
2022-07-29T15:16:21.007Z,30.30
2022-07-29T15:18:57.781Z,30.00
2022-07-29T15:21:35.714Z,29.80
2022-07-29T15:24:16.013Z,29.80
2022-07-29T15:26:52.396Z,29.70
2022-07-29T15:29:28.041Z,29.60
2022-07-29T15:32:04.346Z,29.80
2022-07-29T15:34:39.205Z,29.80
2022-07-29T15:37:13.819Z,29.90
2022-07-29T15:39:48.160Z,30.00
2022-07-29T15:42:22.458Z,29.90
2022-07-29T15:44:56.973Z,30.34
2022-07-29T15:47:31.108Z,30.80
2022-07-29T15:50:05.296Z,30.60
2022-07-29T15:52:39.527Z,30.40
2022-07-29T15:55:16.466Z,30.56
2022-07-29T15:57:51.192Z,30.60
2022-07-29T16:00:25.702Z,30.36
2022-07-29T16:03:00.248Z,30.00
2022-07-29T16:05:34.324Z,29.78
2022-07-29T16:08:09.260Z,29.50
2022-07-29T16:10:43.414Z,29.24
2022-07-29T16:13:18.843Z,29.00
2022-07-29T16:16:02.120Z,28.78
2022-07-29T16:18:36.776Z,28.60
2022-07-29T16:21:10.833Z,28.50
2022-07-29T16:23:45.455Z,28.82
2022-07-29T16:26:19.742Z,29.68
2022-07-29T16:28:53.924Z,29.90
2022-07-29T16:31:30.145Z,30.36
2022-07-29T16:34:06.533Z,30.40
2022-07-29T16:36:47.711Z,30.20
2022-07-29T16:39:28.648Z,30.14
2022-07-29T16:42:05.565Z,30.20
2022-07-29T16:44:40.804Z,30.40
2022-07-29T16:47:15.508Z,30.58
2022-07-29T16:49:52.498Z,30.70
2022-07-29T16:52:36.242Z,31.22
2022-07-29T16:55:18.567Z,31.94
2022-07-29T16:57:56.853Z,32.30
2022-07-29T17:00:36.951Z,32.30
2022-07-29T17:03:14.080Z,32.54
2022-07-29T17:05:54.242Z,32.60
2022-07-29T17:08:29.117Z,32.32
2022-07-29T17:11:04.214Z,31.82
2022-07-29T17:13:47.452Z,31.60
2022-07-29T17:16:28.065Z,31.30
2022-07-29T17:19:04.456Z,31.00
2022-07-29T17:21:48.827Z,30.80
2022-07-29T17:24:23.849Z,30.60
2022-07-29T17:26:58.790Z,30.20
2022-07-29T17:29:34.987Z,29.78
2022-07-29T17:32:10.247Z,29.40
2022-07-29T17:34:45.731Z,29.10
2022-07-29T17:37:20.279Z,28.80
2022-07-29T17:39:57.374Z,28.50
2022-07-29T17:42:37.196Z,28.20
2022-07-29T17:45:12.568Z,27.98
2022-07-29T17:47:47.299Z,27.70
2022-07-29T17:50:21.872Z,27.50
2022-07-29T17:52:58.169Z,27.30
2022-07-29T17:55:32.636Z,27.10
2022-07-29T17:58:08.933Z,26.90
2022-07-29T18:00:43.507Z,26.70
2022-07-29T18:03:17.551Z,26.50
2022-07-29T18:05:52.137Z,26.30
2022-07-29T18:08:26.433Z,26.10
2022-07-29T18:11:00.353Z,26.00
2022-07-29T18:13:35.449Z,25.70
2022-07-29T18:16:11.914Z,25.50
2022-07-29T18:18:46.907Z,25.30
2022-07-29T18:21:37.456Z,25.20
2022-07-29T18:24:16.261Z,25.10
2022-07-29T18:26:50.234Z,24.98
2022-07-29T18:29:24.711Z,24.90
2022-07-29T18:32:00.075Z,24.70
2022-07-29T18:34:34.920Z,24.60
2022-07-29T18:37:09.080Z,24.50
2022-07-29T18:39:43.384Z,24.40
2022-07-29T18:42:18.337Z,24.32
2022-07-29T18:44:52.671Z,24.30
2022-07-29T18:47:32.281Z,24.30
2022-07-29T18:50:11.959Z,24.20
2022-07-29T18:52:47.761Z,24.10
2022-07-29T18:55:22.214Z,24.08
2022-07-29T18:57:57.508Z,24.00
2022-07-29T19:00:32.291Z,23.90
2022-07-29T19:03:06.850Z,23.80
2022-07-29T19:05:41.082Z,23.70
2022-07-29T19:08:15.685Z,23.60
2022-07-29T19:10:57.633Z,23.50
2022-07-29T19:13:32.859Z,23.42
2022-07-29T19:16:07.621Z,23.40
2022-07-29T19:18:43.201Z,23.30
2022-07-29T19:21:18.197Z,23.20
2022-07-29T19:24:04.274Z,23.10
2022-07-29T19:26:46.770Z,23.00
2022-07-29T19:29:21.485Z,22.90
2022-07-29T19:31:56.132Z,22.80
2022-07-29T19:34:30.532Z,22.70
2022-07-29T19:37:05.377Z,22.52
2022-07-29T19:39:39.364Z,22.40
2022-07-29T19:42:13.549Z,22.30
2022-07-29T19:44:47.579Z,22.20
2022-07-29T19:47:21.605Z,22.10
2022-07-29T19:49:55.686Z,22.00
2022-07-29T19:52:29.856Z,21.90
2022-07-29T19:55:07.549Z,21.78
2022-07-29T19:57:42.405Z,21.70
2022-07-29T20:00:18.171Z,21.60
2022-07-29T20:02:57.342Z,21.48
2022-07-29T20:05:31.475Z,21.32
2022-07-29T20:08:06.404Z,21.20
2022-07-29T20:10:40.693Z,21.10
2022-07-29T20:13:14.939Z,21.02
2022-07-29T20:15:49.079Z,21.00
2022-07-29T20:18:23.236Z,20.90
2022-07-29T20:20:57.778Z,20.80
2022-07-29T20:23:34.971Z,20.70
2022-07-29T20:26:10.402Z,20.68
2022-07-29T20:28:49.263Z,20.60
2022-07-29T20:31:25.052Z,20.60
2022-07-29T20:34:00.564Z,20.50
2022-07-29T20:36:38.132Z,20.50
2022-07-29T20:39:12.378Z,20.46
2022-07-29T20:41:50.340Z,20.40
2022-07-29T20:44:27.351Z,20.30
2022-07-29T20:47:03.327Z,20.20
2022-07-29T20:49:37.974Z,20.20
2022-07-29T20:52:12.911Z,20.20
2022-07-29T20:54:47.120Z,20.20
2022-07-29T20:57:38.488Z,20.20
2022-07-29T21:00:15.864Z,20.20
2022-07-29T21:02:50.195Z,20.20
2022-07-29T21:05:33.166Z,20.20
2022-07-29T21:08:14.043Z,20.20
2022-07-29T21:10:50.101Z,20.20
2022-07-29T21:13:33.025Z,20.20
2022-07-29T21:16:14.877Z,20.20
2022-07-29T21:18:51.123Z,20.20
2022-07-29T21:21:26.931Z,20.20
2022-07-29T21:24:02.723Z,20.20
2022-07-29T21:26:37.353Z,20.10
2022-07-29T21:29:12.939Z,20.10
2022-07-29T21:31:47.204Z,20.00
2022-07-29T21:34:23.483Z,20.00
2022-07-29T21:36:59.472Z,19.90
2022-07-29T21:39:34.627Z,19.80
2022-07-29T21:42:09.293Z,19.80
2022-07-29T21:44:44.640Z,19.70
2022-07-29T21:47:20.370Z,19.60
2022-07-29T21:49:54.773Z,19.60
2022-07-29T21:52:29.545Z,19.52
2022-07-29T21:55:04.457Z,19.50
2022-07-29T21:57:39.238Z,19.50
2022-07-29T22:00:17.845Z,19.40
2022-07-29T22:02:54.866Z,19.30
2022-07-29T22:05:30.120Z,19.20
2022-07-29T22:08:05.859Z,19.20
2022-07-29T22:10:40.044Z,19.12
2022-07-29T22:13:15.123Z,19.10
2022-07-29T22:15:49.965Z,19.10
2022-07-29T22:18:25.597Z,19.10
2022-07-29T22:20:59.688Z,19.10
2022-07-29T22:23:34.310Z,19.10
2022-07-29T22:26:08.542Z,19.10
2022-07-29T22:28:42.897Z,19.10
2022-07-29T22:31:20.233Z,19.10
2022-07-29T22:33:59.938Z,19.10
2022-07-29T22:36:39.061Z,19.02
2022-07-29T22:39:16.973Z,19.00
2022-07-29T22:41:51.028Z,19.00
2022-07-29T22:44:25.185Z,19.00
2022-07-29T22:47:04.116Z,19.00
2022-07-29T22:49:40.696Z,19.00
2022-07-29T22:52:14.669Z,18.92
2022-07-29T22:54:49.235Z,18.90
2022-07-29T22:57:23.191Z,18.90
2022-07-29T22:59:56.966Z,18.84
2022-07-29T23:02:30.981Z,18.80
2022-07-29T23:05:04.875Z,18.80
2022-07-29T23:07:40.909Z,18.72
2022-07-29T23:10:15.114Z,18.70
2022-07-29T23:12:48.841Z,18.70
2022-07-29T23:15:23.517Z,18.70
2022-07-29T23:17:57.677Z,18.70
2022-07-29T23:20:32.064Z,18.68
2022-07-29T23:23:05.990Z,18.62
2022-07-29T23:25:40.280Z,18.60
2022-07-29T23:28:14.457Z,18.60
2022-07-29T23:30:48.293Z,18.56
2022-07-29T23:33:22.171Z,18.50
2022-07-29T23:35:56.087Z,18.50
2022-07-29T23:38:30.280Z,18.42
2022-07-29T23:41:08.967Z,18.40
2022-07-29T23:43:47.521Z,18.40
2022-07-29T23:46:23.699Z,18.40
2022-07-29T23:48:58.170Z,18.30
2022-07-29T23:51:32.811Z,18.30
2022-07-29T23:54:07.110Z,18.20
2022-07-29T23:56:41.050Z,18.20
2022-07-29T23:59:15.598Z,18.20
